KIAH/IAH METAR and TAF weather

Enter ICAO airport designator
Station Type Date Time Source
KIAH METAR 2021/05/14 05:53 UTC NOAA

KIAH 140553Z 00000KT 10SM FEW050 FEW250 18/16 A3019 RMK AO2 SLP224 T01780156 10239 20172 402610172 58003


Station Type Date Time Source
KIAH Decoded METAR 2021/05/14 05:53 UTC NOAA

HOUSTON INTERCONTINENTAL, TX, United States (KIAH) 30-00N 095-22W 36M
May 14, 2021 - 01:53 AM EDT / 2021.05.14 0553 UTC
Wind: Calm:0
Visibility: 10 mile(s):0
Sky conditions: mostly clear
Temperature: 64.0 F (17.8 C)
Dew Point: 60.1 F (15.6 C)
Relative Humidity: 86%
Pressure (altimeter): 30.19 in. Hg (1022 hPa)
Pressure tendency: 0.01 inches (0.3 hPa) lower than three hours ago
ob: KIAH 140553Z 00000KT 10SM FEW050 FEW250 18/16 A3019 RMK AO2 SLP224 T01780156 10239 20172 402610172 58003
cycle: 6

Station Type Date Time Source
KIAH TAF 2021/05/14 06:22 UTC NOAA

TAF KIAH 140520Z 1406/1512 05004KT P6SM FEW035 SCT050
FM141400 07007KT P6SM SCT045
FM141900 11008KT P6SM BKN050 BKN080
FM150000 14007KT P6SM SCT035 BKN045
FM150400 VRB04KT P6SM BKN050

Example: see airport list